Arbyrd, Missouri
Current Conditions -  °F | °C
As of 8:53 PM on Friday 19 Dec 2014 (Local Time) from KHKA Reporting Station
Overcast Overcast  
Wind Chill:   Ceiling: 10000
Heat Index:   Visibility: 10mi
Dew Point:   Wind: 6mph
Humidity: 89%   Direction: 30°NNE
Pressure: 30.26"   Gusts: NA
Location:  36.05°N, 90.24°W
Report Text: KHKA 200253Z AUTO 03005KT 10SM OVC100 04/02 A3026 RMK AO2 SLP247 T00390022 51005
Loading
Personal Weather Stations






























Interactive Weather Map New forecast layout! Learn more

10-Day Weather Forecast

Advertisements
Track Severe Weather on mobile